createdAt,value
2018-11-26T00:00:47.552Z,33.37
2018-11-26T00:03:37.083Z,34.13
2018-11-26T00:06:26.592Z,35.50
2018-11-26T00:09:16.089Z,34.83
2018-11-26T00:12:05.574Z,34.53
2018-11-26T00:14:55.062Z,36.63
2018-11-26T00:17:44.723Z,34.83
2018-11-26T00:20:34.203Z,36.80
2018-11-26T00:26:38.326Z,37.13
2018-11-26T00:29:27.851Z,37.03
2018-11-26T00:32:17.307Z,38.37
2018-11-26T00:35:06.821Z,39.23
2018-11-26T00:37:56.524Z,38.97
2018-11-26T00:40:45.992Z,36.77
2018-11-26T00:43:35.492Z,40.20
2018-11-26T00:46:25.154Z,38.20
2018-11-26T00:49:14.620Z,39.17
2018-11-26T00:52:04.299Z,39.73
2018-11-26T00:54:53.819Z,38.57
2018-11-26T00:57:43.452Z,39.10
2018-11-26T01:00:32.937Z,39.97
2018-11-26T01:03:22.389Z,39.43
2018-11-26T01:06:11.921Z,40.67
2018-11-26T01:09:01.402Z,39.53
2018-11-26T01:15:06.009Z,40.80
2018-11-26T01:17:55.482Z,41.37
2018-11-26T01:20:45.162Z,40.30
2018-11-26T01:23:34.634Z,40.53
2018-11-26T01:26:24.116Z,39.83
2018-11-26T01:29:13.638Z,43.30
2018-11-26T01:32:03.149Z,42.70
2018-11-26T01:38:07.257Z,40.57
2018-11-26T01:44:05.287Z,40.97
2018-11-26T01:50:03.439Z,42.20
2018-11-26T01:52:53.114Z,43.87
2018-11-26T01:55:42.584Z,46.07
2018-11-26T01:58:32.081Z,42.17
2018-11-26T02:01:21.590Z,45.03
2018-11-26T02:04:11.109Z,43.13
2018-11-26T02:07:00.580Z,43.40
2018-11-26T02:09:50.099Z,43.43
2018-11-26T02:12:39.603Z,42.57
2018-11-26T02:15:48.029Z,44.57
2018-11-26T02:18:37.534Z,44.40
2018-11-26T02:21:27.007Z,42.03
2018-11-26T02:24:16.518Z,44.80
2018-11-26T02:27:06.263Z,44.40
2018-11-26T02:29:55.782Z,46.73
2018-11-26T02:32:45.262Z,44.70
2018-11-26T02:38:49.967Z,42.67
2018-11-26T02:41:39.446Z,43.63
2018-11-26T02:44:29.067Z,45.27
2018-11-26T02:47:18.571Z,43.53
2018-11-26T02:50:08.190Z,43.67
2018-11-26T02:56:06.424Z,44.83
2018-11-26T02:58:55.901Z,42.23
2018-11-26T03:01:45.413Z,45.63
2018-11-26T03:04:34.885Z,45.17
2018-11-26T03:07:24.440Z,45.57
2018-11-26T03:10:13.905Z,41.27
2018-11-26T03:13:03.394Z,43.87
2018-11-26T03:15:52.838Z,44.57
2018-11-26T03:18:42.323Z,45.57
2018-11-26T03:21:31.805Z,43.80
2018-11-26T03:24:21.309Z,44.00
2018-11-26T03:27:10.799Z,43.80
2018-11-26T03:30:00.283Z,43.10
2018-11-26T03:32:49.787Z,42.43
2018-11-26T03:38:55.047Z,45.07
2018-11-26T03:41:44.723Z,45.70
2018-11-26T03:44:34.237Z,44.57
2018-11-26T03:47:23.710Z,44.33
2018-11-26T03:50:13.557Z,43.30
2018-11-26T03:53:03.208Z,44.40
2018-11-26T03:56:11.368Z,43.73
2018-11-26T03:59:00.850Z,44.47
2018-11-26T04:04:58.893Z,45.40
2018-11-26T04:07:48.416Z,46.87
2018-11-26T04:10:37.899Z,42.43
2018-11-26T04:13:27.541Z,46.07
2018-11-26T04:16:17.040Z,43.67
2018-11-26T04:19:06.680Z,45.27
2018-11-26T04:25:10.676Z,43.10
2018-11-26T04:28:00.380Z,43.53
2018-11-26T04:30:49.850Z,46.60
2018-11-26T04:33:39.396Z,44.17
2018-11-26T04:36:28.874Z,45.70
2018-11-26T04:42:33.051Z,44.97
2018-11-26T04:45:22.549Z,45.57
2018-11-26T04:48:12.044Z,45.67
2018-11-26T04:51:01.544Z,44.33
2018-11-26T04:57:06.102Z,42.87
2018-11-26T04:59:55.625Z,42.83
2018-11-26T05:02:45.117Z,45.07
2018-11-26T05:05:34.599Z,42.27
2018-11-26T05:08:24.088Z,42.43
2018-11-26T05:11:13.617Z,43.40
2018-11-26T05:14:03.099Z,40.77
2018-11-26T05:16:52.628Z,41.17
2018-11-26T05:19:42.142Z,40.27
2018-11-26T05:22:24.513Z,40.63
2018-11-26T05:25:06.250Z,38.80
2018-11-26T05:27:48.370Z,38.90
2018-11-26T05:30:19.063Z,38.07
2018-11-26T05:33:08.555Z,38.30
2018-11-26T05:35:58.026Z,37.47
2018-11-26T05:38:47.531Z,39.40
2018-11-26T05:44:45.567Z,36.13
2018-11-26T05:47:35.105Z,36.77
2018-11-26T05:53:33.140Z,36.93
2018-11-26T05:56:22.600Z,36.87
2018-11-26T05:59:12.103Z,34.93
2018-11-26T06:05:16.030Z,35.37
2018-11-26T06:08:05.643Z,36.03
2018-11-26T06:10:55.137Z,34.23
2018-11-26T06:13:44.581Z,35.27
2018-11-26T06:16:34.261Z,32.97
2018-11-26T06:19:23.733Z,33.37
2018-11-26T06:22:13.216Z,33.97
2018-11-26T06:28:11.225Z,34.10
2018-11-26T06:31:00.696Z,33.33
2018-11-26T06:33:50.355Z,33.63
2018-11-26T06:36:39.834Z,35.60
2018-11-26T06:39:29.420Z,33.53
2018-11-26T06:42:18.890Z,32.70
2018-11-26T06:45:27.289Z,34.93
2018-11-26T06:51:31.647Z,31.47
2018-11-26T06:54:21.151Z,31.53
2018-11-26T06:57:10.643Z,31.87
2018-11-26T07:00:00.190Z,31.60
2018-11-26T07:02:49.786Z,30.93
2018-11-26T07:05:39.235Z,32.60
2018-11-26T07:08:28.948Z,32.37
2018-11-26T07:11:18.431Z,33.73
2018-11-26T07:14:07.930Z,33.47
2018-11-26T07:16:57.399Z,34.67
2018-11-26T07:19:46.940Z,34.67
2018-11-26T07:25:44.984Z,35.20
2018-11-26T07:28:34.472Z,33.93
2018-11-26T07:31:24.115Z,33.77
2018-11-26T07:34:13.774Z,32.80
2018-11-26T07:37:03.469Z,33.00
2018-11-26T07:39:34.170Z,31.87
2018-11-26T07:42:23.668Z,31.80
2018-11-26T07:45:13.833Z,30.80
2018-11-26T07:48:03.338Z,30.63
2018-11-26T07:54:01.361Z,29.43
2018-11-26T07:56:50.811Z,30.10
2018-11-26T07:59:40.314Z,29.53
2018-11-26T08:02:29.938Z,30.87
2018-11-26T08:05:22.645Z,30.10
2018-11-26T08:08:12.132Z,29.93
2018-11-26T08:11:01.606Z,32.23
2018-11-26T08:13:51.097Z,29.70
2018-11-26T08:16:40.630Z,30.07
2018-11-26T08:19:30.148Z,31.43
2018-11-26T08:22:19.626Z,33.43
2018-11-26T08:25:28.378Z,33.47
2018-11-26T08:28:17.910Z,33.93
2018-11-26T08:31:07.374Z,34.00
2018-11-26T08:33:57.012Z,31.23
2018-11-26T08:36:50.109Z,32.80
2018-11-26T08:39:53.120Z,30.20
2018-11-26T08:42:42.589Z,29.63
2018-11-26T08:45:50.727Z,23.80
2018-11-26T08:48:58.908Z,24.53
2018-11-26T08:51:48.401Z,22.83
2018-11-26T08:54:38.228Z,21.93
2018-11-26T08:57:27.779Z,22.13
2018-11-26T09:03:36.941Z,23.03
2018-11-26T09:06:26.398Z,23.33
2018-11-26T09:09:16.295Z,24.33
2018-11-26T09:15:14.527Z,24.23
2018-11-26T09:18:03.993Z,26.30
2018-11-26T09:20:53.561Z,28.33
2018-11-26T09:23:42.939Z,30.07
2018-11-26T09:26:13.627Z,28.47
2018-11-26T09:29:03.109Z,29.80
2018-11-26T09:35:08.442Z,29.53
2018-11-26T09:37:57.927Z,28.07
2018-11-26T09:40:47.780Z,26.70
2018-11-26T09:43:37.332Z,26.73
2018-11-26T09:46:26.862Z,27.60
2018-11-26T09:49:16.325Z,27.47
2018-11-26T09:52:06.177Z,27.60
2018-11-26T09:58:10.769Z,22.87
2018-11-26T10:01:00.247Z,26.23
2018-11-26T10:03:49.762Z,23.57
2018-11-26T10:06:39.400Z,23.00
2018-11-26T10:09:29.025Z,23.70
2018-11-26T10:12:18.481Z,22.07
2018-11-26T10:15:26.894Z,23.13
2018-11-26T10:18:16.639Z,24.00
2018-11-26T10:20:47.347Z,23.13
2018-11-26T10:26:51.670Z,22.97
2018-11-26T10:29:41.147Z,22.70
2018-11-26T10:32:30.688Z,22.73
2018-11-26T10:35:20.698Z,23.00
2018-11-26T10:38:10.227Z,21.27
2018-11-26T10:40:59.733Z,19.37
2018-11-26T10:43:49.246Z,19.53
2018-11-26T10:46:38.737Z,17.53
2018-11-26T10:49:28.251Z,16.90
2018-11-26T10:52:17.717Z,18.40
2018-11-26T10:55:11.025Z,17.60
2018-11-26T10:58:00.497Z,17.07
2018-11-26T11:01:08.672Z,15.67
2018-11-26T11:03:58.151Z,17.73
2018-11-26T11:06:47.642Z,17.13
2018-11-26T11:09:37.198Z,18.30
2018-11-26T11:12:26.639Z,18.00
2018-11-26T11:15:16.260Z,18.70
2018-11-26T11:18:06.183Z,18.77
2018-11-26T11:27:25.433Z,17.90
2018-11-26T11:30:33.847Z,18.83
2018-11-26T11:36:13.142Z,19.53
2018-11-26T11:39:02.878Z,19.77
2018-11-26T11:41:52.362Z,21.47
2018-11-26T11:44:41.869Z,24.00
2018-11-26T11:47:31.335Z,25.27
2018-11-26T11:50:21.606Z,22.37
2018-11-26T11:53:11.131Z,22.67
2018-11-26T11:59:09.125Z,23.17
2018-11-26T12:01:58.594Z,23.83
2018-11-26T12:04:48.214Z,20.70
2018-11-26T12:07:37.697Z,20.33
2018-11-26T12:10:27.190Z,21.43
2018-11-26T12:13:16.710Z,20.97
2018-11-26T12:16:07.240Z,21.33
2018-11-26T12:18:56.685Z,21.20
2018-11-26T12:25:00.854Z,19.47
2018-11-26T12:37:28.475Z,20.43
2018-11-26T12:40:18.533Z,21.03
2018-11-26T12:46:23.301Z,21.07
2018-11-26T12:49:12.799Z,20.93
2018-11-26T12:52:02.308Z,20.17
2018-11-26T12:54:51.797Z,20.83
2018-11-26T12:57:41.635Z,21.17
2018-11-26T13:00:31.112Z,19.33
2018-11-26T13:03:20.649Z,21.33
2018-11-26T13:06:10.139Z,20.40
2018-11-26T13:08:59.638Z,21.33
2018-11-26T13:11:49.123Z,21.50
2018-11-26T13:14:38.683Z,21.30
2018-11-26T13:22:41.294Z,20.20
2018-11-26T13:25:33.709Z,20.63
2018-11-26T13:28:21.361Z,19.33
2018-11-26T13:34:19.409Z,20.30
2018-11-26T13:37:09.052Z,20.20
2018-11-26T13:39:58.574Z,19.80
2018-11-26T13:42:48.057Z,20.40
2018-11-26T13:45:38.446Z,21.40
2018-11-26T13:51:36.468Z,20.60
2018-11-26T13:54:25.995Z,20.67
2018-11-26T14:00:30.068Z,21.20
2018-11-26T14:03:19.557Z,22.07
2018-11-26T14:06:09.068Z,23.27
2018-11-26T14:08:58.563Z,24.43
2018-11-26T14:11:51.242Z,21.63
2018-11-26T14:14:37.896Z,21.80
2018-11-26T14:20:43.224Z,21.03
2018-11-26T14:23:32.716Z,20.47
2018-11-26T14:26:23.873Z,21.93
2018-11-26T14:29:13.353Z,20.80
2018-11-26T14:32:02.858Z,19.43
2018-11-26T14:34:52.351Z,20.57
2018-11-26T14:37:42.318Z,20.90
2018-11-26T14:43:56.369Z,19.53
2018-11-26T14:46:45.875Z,19.83
2018-11-26T14:49:35.412Z,21.63
2018-11-26T14:52:25.468Z,21.93
2018-11-26T14:58:24.360Z,22.23
2018-11-26T15:01:14.248Z,20.83
2018-11-26T15:04:04.255Z,21.17
2018-11-26T15:06:55.705Z,19.47
2018-11-26T15:09:45.851Z,22.00
2018-11-26T15:12:35.307Z,19.83
2018-11-26T15:15:30.190Z,20.07
2018-11-26T15:21:29.827Z,19.30
2018-11-26T15:24:21.435Z,19.60
2018-11-26T15:27:12.271Z,18.87
2018-11-26T15:30:01.823Z,19.07
2018-11-26T15:32:53.044Z,18.47
2018-11-26T15:35:44.327Z,18.93
2018-11-26T15:38:35.311Z,18.37
2018-11-26T15:41:19.000Z,18.27
2018-11-26T15:44:02.491Z,17.67
2018-11-26T15:46:45.635Z,16.90
2018-11-26T15:49:29.375Z,18.37
2018-11-26T15:52:11.195Z,17.20
2018-11-26T15:54:52.642Z,17.03
2018-11-26T15:57:35.053Z,18.53
2018-11-26T16:00:16.904Z,18.70
2018-11-26T16:02:59.413Z,17.77
2018-11-26T16:05:41.808Z,16.83
2018-11-26T16:08:23.543Z,18.77
2018-11-26T16:11:05.771Z,17.27
2018-11-26T16:13:48.629Z,17.13
2018-11-26T16:16:30.189Z,17.70
2018-11-26T16:19:13.746Z,17.63
2018-11-26T16:21:55.734Z,17.97
2018-11-26T16:24:38.114Z,17.03
2018-11-26T16:27:19.723Z,18.37
2018-11-26T16:30:02.111Z,16.70
2018-11-26T16:32:32.716Z,18.67
2018-11-26T16:38:38.170Z,16.80
2018-11-26T16:41:27.668Z,17.60
2018-11-26T16:44:17.159Z,17.33
2018-11-26T16:47:06.657Z,17.33
2018-11-26T16:49:56.135Z,18.37
2018-11-26T16:52:45.693Z,18.10
2018-11-26T16:55:35.163Z,16.60
2018-11-26T16:58:24.665Z,16.17
2018-11-26T17:01:14.405Z,17.10
2018-11-26T17:04:03.896Z,16.47
2018-11-26T17:06:53.367Z,16.50
2018-11-26T17:09:43.096Z,15.63
2018-11-26T17:12:32.556Z,16.17
2018-11-26T17:15:22.048Z,16.07
2018-11-26T17:18:11.526Z,15.97
2018-11-26T17:21:04.107Z,16.27
2018-11-26T17:23:50.906Z,15.70
2018-11-26T17:26:40.427Z,16.53
2018-11-26T17:29:29.901Z,16.13
2018-11-26T17:35:34.092Z,15.50
2018-11-26T17:38:42.479Z,16.50
2018-11-26T17:45:06.060Z,16.00
2018-11-26T17:47:56.027Z,16.77
2018-11-26T17:50:45.911Z,17.43
2018-11-26T17:56:44.009Z,16.57
2018-11-26T17:59:33.531Z,16.97
2018-11-26T18:02:22.997Z,16.73
2018-11-26T18:05:13.693Z,17.73
2018-11-26T18:08:22.077Z,16.33
2018-11-26T18:14:45.393Z,15.90
2018-11-26T18:23:26.050Z,16.13
2018-11-26T18:26:15.538Z,17.53
2018-11-26T18:29:04.996Z,16.30
2018-11-26T18:31:54.485Z,16.67
2018-11-26T18:34:43.968Z,17.57
2018-11-26T18:37:33.508Z,16.93
2018-11-26T18:40:23.218Z,15.40
2018-11-26T18:42:54.159Z,16.30
2018-11-26T18:45:43.698Z,17.20
2018-11-26T18:51:28.849Z,16.13
2018-11-26T18:54:18.334Z,17.97
2018-11-26T19:00:35.314Z,15.63
2018-11-26T19:03:24.819Z,16.83
2018-11-26T19:06:13.602Z,17.37
2018-11-26T19:09:03.401Z,17.33
2018-11-26T19:17:44.474Z,18.03
2018-11-26T19:20:33.976Z,17.93
2018-11-26T19:23:23.932Z,17.40
2018-11-26T19:26:15.598Z,17.40
2018-11-26T19:29:03.441Z,18.07
2018-11-26T19:31:55.967Z,19.43
2018-11-26T19:34:42.479Z,18.03
2018-11-26T19:37:32.426Z,17.17
2018-11-26T19:40:22.250Z,17.87
2018-11-26T19:43:12.299Z,18.83
2018-11-26T19:46:04.320Z,17.70
2018-11-26T19:48:54.478Z,19.87
2018-11-26T19:51:43.915Z,22.80
2018-11-26T19:54:33.394Z,18.50
2018-11-26T19:57:23.528Z,17.10
2018-11-26T20:00:33.279Z,19.10
2018-11-26T20:03:42.970Z,18.47
2018-11-26T20:06:32.514Z,17.83
2018-11-26T20:09:22.040Z,18.43
2018-11-26T20:12:11.537Z,18.90
2018-11-26T20:21:27.737Z,17.23
2018-11-26T20:24:14.497Z,18.57
2018-11-26T20:27:04.078Z,18.13
2018-11-26T20:29:53.579Z,19.47
2018-11-26T20:32:43.876Z,18.50
2018-11-26T20:35:33.353Z,18.33
2018-11-26T20:38:22.885Z,18.20
2018-11-26T20:41:12.744Z,18.53
2018-11-26T20:44:02.845Z,18.70
2018-11-26T20:46:33.563Z,19.57
2018-11-26T20:49:23.056Z,19.20
2018-11-26T20:51:53.621Z,18.30
2018-11-26T20:54:43.134Z,17.70
2018-11-26T20:57:32.633Z,19.37
2018-11-26T21:00:29.511Z,19.10
2018-11-26T21:03:19.375Z,18.50
2018-11-26T21:06:09.012Z,19.40
2018-11-26T21:08:58.949Z,19.80
2018-11-26T21:11:48.446Z,17.97
2018-11-26T21:18:05.698Z,17.63
2018-11-26T21:20:55.180Z,16.70
2018-11-26T21:23:37.001Z,17.33
2018-11-26T21:26:19.358Z,17.13
2018-11-26T21:29:01.115Z,15.80
2018-11-26T21:31:43.470Z,17.07
2018-11-26T21:34:25.291Z,16.00
2018-11-26T21:37:06.955Z,15.43
2018-11-26T21:39:48.720Z,15.70
2018-11-26T21:42:31.129Z,15.50
2018-11-26T21:45:13.329Z,16.37
2018-11-26T21:47:55.581Z,15.90
2018-11-26T21:50:26.487Z,15.27
2018-11-26T21:53:16.017Z,15.23
2018-11-26T21:56:05.488Z,16.10
2018-11-26T21:58:55.091Z,14.30
2018-11-26T22:01:44.603Z,15.77
2018-11-26T22:07:48.971Z,15.97
2018-11-26T22:10:39.046Z,15.13
2018-11-26T22:13:29.029Z,15.83
2018-11-26T22:19:32.561Z,15.63
2018-11-26T22:22:22.118Z,15.30
2018-11-26T22:25:12.017Z,15.73
2018-11-26T22:28:01.469Z,15.70
2018-11-26T22:30:51.342Z,14.97
2018-11-26T22:33:40.839Z,16.00
2018-11-26T22:36:30.325Z,16.10
2018-11-26T22:39:20.086Z,14.30
2018-11-26T22:42:09.572Z,15.27
2018-11-26T22:44:59.110Z,14.23
2018-11-26T22:48:07.551Z,14.47
2018-11-26T22:54:12.485Z,14.40
2018-11-26T22:57:01.986Z,15.90
2018-11-26T22:59:51.466Z,15.97
2018-11-26T23:02:41.192Z,15.50
2018-11-26T23:05:30.671Z,14.93
2018-11-26T23:08:20.191Z,15.20
2018-11-26T23:11:09.988Z,15.37
2018-11-26T23:13:59.466Z,14.83
2018-11-26T23:16:49.154Z,16.17
2018-11-26T23:19:38.664Z,15.47
2018-11-26T23:22:28.154Z,15.37
2018-11-26T23:25:18.373Z,15.33
2018-11-26T23:28:07.884Z,15.13
2018-11-26T23:30:57.403Z,15.17
2018-11-26T23:33:46.880Z,15.23
2018-11-26T23:36:36.580Z,16.13
2018-11-26T23:42:41.255Z,14.67
2018-11-26T23:45:30.938Z,15.37
2018-11-26T23:51:34.954Z,14.97
2018-11-26T23:54:24.496Z,15.07
2018-11-26T23:57:13.972Z,15.87
